createdAt,value
2022-08-31T00:01:52.963Z,16.84
2022-08-31T00:04:26.215Z,16.87
2022-08-31T00:06:54.290Z,16.78
2022-08-31T00:09:23.654Z,16.83
2022-08-31T00:11:51.551Z,16.79
2022-08-31T00:14:19.778Z,16.81
2022-08-31T00:16:47.889Z,16.80
2022-08-31T00:19:16.064Z,16.84
2022-08-31T00:21:44.759Z,16.79
2022-08-31T00:24:14.291Z,16.80
2022-08-31T00:26:46.352Z,16.80
2022-08-31T00:29:15.196Z,16.77
2022-08-31T00:31:46.106Z,16.76
2022-08-31T00:34:14.801Z,16.79
2022-08-31T00:36:42.614Z,16.75
2022-08-31T00:39:10.550Z,16.73
2022-08-31T00:41:39.551Z,16.71
2022-08-31T00:44:11.318Z,16.74
2022-08-31T00:46:41.534Z,16.70
2022-08-31T00:49:12.387Z,16.70
2022-08-31T00:51:43.075Z,16.66
2022-08-31T00:54:13.956Z,16.56
2022-08-31T00:56:44.767Z,16.61
2022-08-31T00:59:16.129Z,16.60
2022-08-31T01:01:44.078Z,16.59
2022-08-31T01:04:12.524Z,16.44
2022-08-31T01:06:41.239Z,16.52
2022-08-31T01:09:09.820Z,16.45
2022-08-31T01:11:40.313Z,16.51
2022-08-31T01:14:09.530Z,16.42
2022-08-31T01:16:44.912Z,16.28
2022-08-31T01:19:23.623Z,16.35
2022-08-31T01:21:57.933Z,16.31
2022-08-31T01:24:28.526Z,16.17
2022-08-31T01:26:58.717Z,16.27
2022-08-31T01:29:26.549Z,16.23
2022-08-31T01:31:55.086Z,16.12
2022-08-31T01:34:23.924Z,16.10
2022-08-31T01:36:52.555Z,16.16
2022-08-31T01:39:21.252Z,16.12
2022-08-31T01:41:50.542Z,15.99
2022-08-31T01:44:21.930Z,15.90
2022-08-31T01:46:51.722Z,15.81
2022-08-31T01:49:23.439Z,15.78
2022-08-31T01:51:53.390Z,15.90
2022-08-31T01:54:22.574Z,15.85
2022-08-31T01:56:52.162Z,15.82
2022-08-31T01:59:28.653Z,15.68
2022-08-31T02:02:15.927Z,15.70
2022-08-31T02:04:47.614Z,15.68
2022-08-31T02:07:15.479Z,15.61
2022-08-31T02:09:43.367Z,15.56
2022-08-31T02:12:12.888Z,15.56
2022-08-31T02:14:40.897Z,15.49
2022-08-31T02:17:09.336Z,15.40
2022-08-31T02:19:37.949Z,15.46
2022-08-31T02:22:05.866Z,15.40
2022-08-31T02:24:33.791Z,15.36
2022-08-31T02:27:01.873Z,15.37
2022-08-31T02:29:31.237Z,15.36
2022-08-31T02:32:00.057Z,15.35
2022-08-31T02:34:29.425Z,15.31
2022-08-31T02:36:58.405Z,15.23
2022-08-31T02:39:28.659Z,15.28
2022-08-31T02:41:56.598Z,15.28
2022-08-31T02:44:24.516Z,15.26
2022-08-31T02:46:57.095Z,15.34
2022-08-31T02:49:42.320Z,15.38
2022-08-31T02:52:10.342Z,15.44
2022-08-31T02:54:38.259Z,15.34
2022-08-31T02:57:07.038Z,15.38
2022-08-31T02:59:35.131Z,15.40
2022-08-31T03:02:04.518Z,15.44
2022-08-31T03:04:34.126Z,15.49
2022-08-31T03:07:02.076Z,15.52
2022-08-31T03:09:31.758Z,15.50
2022-08-31T03:12:00.475Z,15.37
2022-08-31T03:14:28.515Z,15.39
2022-08-31T03:16:56.360Z,15.24
2022-08-31T03:19:25.641Z,15.33
2022-08-31T03:21:55.944Z,15.28
2022-08-31T03:24:27.233Z,15.23
2022-08-31T03:26:55.979Z,15.16
2022-08-31T03:29:23.943Z,15.03
2022-08-31T03:32:10.115Z,15.01
2022-08-31T03:34:40.906Z,14.99
2022-08-31T03:37:08.822Z,15.03
2022-08-31T03:39:36.753Z,15.04
2022-08-31T03:42:06.794Z,15.03
2022-08-31T03:44:35.179Z,14.98
2022-08-31T03:47:03.014Z,14.94
2022-08-31T03:49:32.290Z,14.89
2022-08-31T03:52:11.994Z,14.83
2022-08-31T03:54:51.866Z,14.81
2022-08-31T03:57:19.818Z,14.75
2022-08-31T03:59:47.649Z,14.73
2022-08-31T04:02:15.672Z,14.70
2022-08-31T04:05:02.151Z,14.64
2022-08-31T04:07:49.757Z,14.61
2022-08-31T04:10:32.426Z,14.58
2022-08-31T04:13:20.590Z,14.54
2022-08-31T04:16:10.080Z,14.55
2022-08-31T04:18:53.442Z,14.53
2022-08-31T04:21:25.279Z,14.53
2022-08-31T04:24:20.664Z,14.55
2022-08-31T04:26:53.162Z,14.53
2022-08-31T04:29:21.308Z,14.53
2022-08-31T04:31:49.382Z,14.52
2022-08-31T04:34:17.810Z,14.42
2022-08-31T04:36:46.319Z,14.62
2022-08-31T04:39:14.979Z,14.71
2022-08-31T04:41:46.366Z,14.77
2022-08-31T04:44:19.680Z,14.82
2022-08-31T04:46:53.202Z,14.88
2022-08-31T04:49:23.631Z,14.87
2022-08-31T04:51:53.662Z,14.91
2022-08-31T04:54:21.776Z,14.98
2022-08-31T04:56:51.226Z,15.00
2022-08-31T04:59:29.148Z,15.02
2022-08-31T05:02:17.363Z,15.07
2022-08-31T05:04:51.083Z,15.02
2022-08-31T05:07:19.259Z,15.05
2022-08-31T05:09:47.591Z,15.07
2022-08-31T05:12:16.804Z,15.08
2022-08-31T05:14:46.083Z,15.11
2022-08-31T05:17:24.676Z,15.07
2022-08-31T05:19:53.217Z,15.10
2022-08-31T05:22:30.900Z,15.14
2022-08-31T05:24:59.977Z,15.12
2022-08-31T05:27:29.217Z,15.17
2022-08-31T05:29:57.265Z,15.24
2022-08-31T05:32:42.261Z,15.28
2022-08-31T05:35:12.175Z,15.33
2022-08-31T05:37:42.365Z,15.46
2022-08-31T05:40:12.998Z,15.36
2022-08-31T05:42:42.358Z,15.32
2022-08-31T05:45:10.993Z,15.40
2022-08-31T05:47:41.641Z,15.46
2022-08-31T05:50:10.921Z,15.53
2022-08-31T05:52:41.920Z,15.54
2022-08-31T05:55:11.521Z,15.71
2022-08-31T05:57:40.438Z,15.65
2022-08-31T06:00:11.254Z,15.54
2022-08-31T06:02:46.465Z,15.49
2022-08-31T06:05:15.153Z,15.54
2022-08-31T06:07:45.368Z,15.59
2022-08-31T06:10:15.602Z,15.65
2022-08-31T06:12:46.159Z,15.56
2022-08-31T06:15:21.023Z,15.57
2022-08-31T06:17:48.960Z,15.68
2022-08-31T06:20:18.290Z,15.69
2022-08-31T06:22:48.157Z,15.83
2022-08-31T06:25:27.792Z,15.84
2022-08-31T06:27:56.585Z,15.77
2022-08-31T06:30:27.448Z,15.77
2022-08-31T06:32:58.881Z,15.75
2022-08-31T06:35:32.939Z,15.73
2022-08-31T06:38:24.168Z,15.67
2022-08-31T06:41:36.379Z,15.92
2022-08-31T06:44:24.988Z,16.08
2022-08-31T06:47:21.974Z,16.17
2022-08-31T06:49:52.065Z,16.26
2022-08-31T06:52:21.080Z,16.26
2022-08-31T06:55:03.929Z,16.29
2022-08-31T06:57:50.433Z,16.29
2022-08-31T07:00:58.703Z,16.27
2022-08-31T07:03:44.226Z,16.30
2022-08-31T07:06:15.429Z,16.38
2022-08-31T07:08:44.319Z,16.53
2022-08-31T07:11:14.174Z,16.59
2022-08-31T07:13:43.195Z,16.55
2022-08-31T07:16:13.295Z,16.63
2022-08-31T07:18:43.720Z,16.74
2022-08-31T07:21:16.845Z,16.71
2022-08-31T07:23:45.919Z,16.67
2022-08-31T07:26:18.394Z,16.73
2022-08-31T07:28:52.913Z,16.74
2022-08-31T07:31:23.329Z,16.74
2022-08-31T07:33:55.726Z,16.78
2022-08-31T07:36:26.265Z,16.75
2022-08-31T07:39:23.681Z,16.73
2022-08-31T07:42:09.474Z,16.87
2022-08-31T07:44:39.637Z,16.90
2022-08-31T07:47:09.098Z,16.80
2022-08-31T07:49:38.379Z,16.88
2022-08-31T07:52:19.599Z,16.89
2022-08-31T07:55:11.953Z,16.96
2022-08-31T07:58:00.209Z,16.89
2022-08-31T08:00:33.141Z,16.97
2022-08-31T08:03:07.742Z,16.94
2022-08-31T08:05:58.219Z,16.99
2022-08-31T08:08:42.980Z,17.05
2022-08-31T08:11:18.664Z,17.16
2022-08-31T08:13:55.804Z,17.24
2022-08-31T08:16:35.831Z,17.19
2022-08-31T08:19:24.485Z,17.21
2022-08-31T08:21:53.762Z,17.22
2022-08-31T08:24:25.228Z,17.33
2022-08-31T08:27:11.577Z,17.56
2022-08-31T08:30:13.808Z,17.48
2022-08-31T08:32:42.658Z,17.57
2022-08-31T08:35:11.485Z,17.74
2022-08-31T08:37:57.766Z,17.69
2022-08-31T08:40:37.227Z,17.80
2022-08-31T08:43:06.282Z,17.80
2022-08-31T08:45:36.250Z,17.64
2022-08-31T08:48:12.121Z,17.80
2022-08-31T08:50:42.630Z,17.80
2022-08-31T08:53:15.784Z,17.78
2022-08-31T08:56:08.033Z,17.89
2022-08-31T08:58:45.592Z,18.07
2022-08-31T09:01:17.584Z,17.98
2022-08-31T09:03:56.867Z,18.13
2022-08-31T09:06:46.084Z,18.32
2022-08-31T09:09:37.000Z,18.48
2022-08-31T09:12:20.875Z,18.66
2022-08-31T09:15:15.797Z,18.77
2022-08-31T09:17:57.941Z,18.94
2022-08-31T09:20:28.206Z,18.98
2022-08-31T09:22:58.606Z,19.08
2022-08-31T09:25:33.314Z,19.11
2022-08-31T09:28:08.303Z,19.12
2022-08-31T09:30:50.704Z,19.12
2022-08-31T09:33:22.548Z,19.16
2022-08-31T09:35:56.776Z,19.26
2022-08-31T09:38:31.322Z,19.14
2022-08-31T09:41:02.041Z,19.37
2022-08-31T09:43:38.649Z,19.21
2022-08-31T09:46:11.635Z,19.32
2022-08-31T09:48:44.445Z,19.05
2022-08-31T09:51:22.478Z,19.26
2022-08-31T09:54:10.342Z,19.41
2022-08-31T09:56:56.590Z,19.42
2022-08-31T09:59:38.448Z,19.42
2022-08-31T10:02:11.192Z,19.36
2022-08-31T10:04:52.287Z,19.54
2022-08-31T10:07:32.433Z,19.82
2022-08-31T10:10:04.606Z,19.80
2022-08-31T10:12:43.840Z,20.16
2022-08-31T10:15:19.581Z,20.33
2022-08-31T10:17:57.176Z,20.16
2022-08-31T10:20:31.866Z,20.35
2022-08-31T10:23:10.697Z,20.31
2022-08-31T10:25:43.074Z,20.20
2022-08-31T10:28:18.143Z,20.17
2022-08-31T10:30:54.005Z,20.30
2022-08-31T10:33:46.709Z,20.30
2022-08-31T10:36:16.393Z,20.09
2022-08-31T10:38:47.113Z,20.06
2022-08-31T10:41:22.190Z,20.05
2022-08-31T10:44:01.500Z,20.11
2022-08-31T10:46:34.567Z,20.09
2022-08-31T10:49:04.374Z,19.97
2022-08-31T10:51:41.786Z,20.01
2022-08-31T10:54:28.669Z,20.00
2022-08-31T10:57:05.553Z,20.01
2022-08-31T10:59:44.752Z,20.02
2022-08-31T11:02:48.624Z,20.09
2022-08-31T11:05:33.195Z,20.00
2022-08-31T11:08:12.270Z,20.10
2022-08-31T11:10:48.873Z,20.26
2022-08-31T11:13:36.069Z,20.48
2022-08-31T11:16:19.749Z,20.61
2022-08-31T11:19:09.313Z,20.59
2022-08-31T11:22:00.494Z,20.49
2022-08-31T11:25:09.875Z,20.38
2022-08-31T11:27:44.172Z,20.38
2022-08-31T11:30:24.357Z,20.56
2022-08-31T11:32:56.739Z,20.59
2022-08-31T11:35:57.220Z,20.53
2022-08-31T11:38:47.893Z,20.47
2022-08-31T11:41:41.239Z,20.64
2022-08-31T11:44:11.095Z,20.76
2022-08-31T11:47:06.741Z,20.92
2022-08-31T11:49:40.114Z,20.95
2022-08-31T11:52:14.619Z,21.07
2022-08-31T11:55:08.916Z,21.09
2022-08-31T11:58:11.331Z,21.07
2022-08-31T12:00:44.581Z,20.96
2022-08-31T12:03:38.121Z,20.97
2022-08-31T12:06:10.429Z,21.03
2022-08-31T12:08:52.512Z,21.04
2022-08-31T12:11:39.425Z,21.14
2022-08-31T12:14:19.808Z,21.08
2022-08-31T12:17:17.938Z,21.03
2022-08-31T12:20:01.842Z,21.12
2022-08-31T12:23:30.802Z,21.11
2022-08-31T12:26:13.337Z,21.22
2022-08-31T12:29:02.661Z,21.10
2022-08-31T12:31:30.877Z,21.16
2022-08-31T12:34:05.517Z,21.26
2022-08-31T12:36:35.488Z,21.35
2022-08-31T12:39:10.207Z,21.38
2022-08-31T12:41:41.967Z,21.38
2022-08-31T12:44:13.928Z,21.35
2022-08-31T12:46:59.793Z,21.31
2022-08-31T12:49:55.538Z,21.44
2022-08-31T12:52:39.809Z,21.48
2022-08-31T12:55:23.281Z,21.42
2022-08-31T12:58:00.658Z,21.48
2022-08-31T13:00:30.740Z,21.48
2022-08-31T13:03:02.295Z,21.53
2022-08-31T13:05:33.845Z,21.50
2022-08-31T13:08:02.603Z,21.49
2022-08-31T13:13:05.837Z,21.58
2022-08-31T13:15:39.730Z,21.64
2022-08-31T13:18:12.232Z,21.68
2022-08-31T13:20:43.462Z,21.63
2022-08-31T13:23:14.714Z,21.69
2022-08-31T13:25:48.446Z,21.82
2022-08-31T13:28:26.155Z,21.75
2022-08-31T13:31:03.061Z,21.83
2022-08-31T13:33:34.776Z,21.79
2022-08-31T13:36:09.671Z,21.78
2022-08-31T13:38:48.155Z,21.86
2022-08-31T13:41:27.238Z,21.91
2022-08-31T13:44:01.386Z,21.79
2022-08-31T13:46:42.925Z,21.75
2022-08-31T13:49:30.974Z,21.79
2022-08-31T13:51:59.982Z,21.82
2022-08-31T13:54:31.521Z,21.91
2022-08-31T13:57:22.766Z,21.99
2022-08-31T13:59:50.739Z,22.05
2022-08-31T14:02:39.471Z,22.16
2022-08-31T14:05:12.805Z,22.27
2022-08-31T14:08:08.293Z,22.32
2022-08-31T14:10:40.568Z,22.24
2022-08-31T14:13:25.143Z,22.28
2022-08-31T14:15:58.728Z,22.28
2022-08-31T14:18:29.546Z,22.28
2022-08-31T14:21:21.942Z,22.32
2022-08-31T14:23:53.113Z,22.39
2022-08-31T14:26:26.351Z,22.50
2022-08-31T14:28:58.447Z,22.46
2022-08-31T14:31:30.212Z,22.47
2022-08-31T14:34:24.134Z,22.54
2022-08-31T14:36:56.683Z,22.59
2022-08-31T14:39:29.944Z,22.63
2022-08-31T14:42:00.786Z,22.75
2022-08-31T14:44:33.573Z,22.86
2022-08-31T14:47:02.497Z,23.06
2022-08-31T14:49:36.029Z,23.14
2022-08-31T14:52:06.959Z,23.19
2022-08-31T14:54:37.016Z,23.29
2022-08-31T14:57:09.694Z,23.39
2022-08-31T14:59:41.987Z,23.39
2022-08-31T15:02:12.809Z,23.38
2022-08-31T15:04:45.539Z,23.41
2022-08-31T15:07:15.210Z,23.39
2022-08-31T15:09:44.795Z,23.39
2022-08-31T15:12:15.123Z,23.39
2022-08-31T15:14:45.126Z,23.40
2022-08-31T15:17:19.092Z,23.37
2022-08-31T15:19:50.310Z,23.23
2022-08-31T15:22:19.162Z,23.13
2022-08-31T15:24:47.287Z,23.19
2022-08-31T15:27:16.144Z,23.30
2022-08-31T15:29:48.606Z,23.33
2022-08-31T15:32:17.549Z,23.40
2022-08-31T15:34:57.462Z,23.37
2022-08-31T15:37:27.350Z,23.48
2022-08-31T15:40:01.840Z,23.86
2022-08-31T15:42:31.399Z,24.24
2022-08-31T15:45:01.168Z,24.55
2022-08-31T15:47:48.656Z,24.75
2022-08-31T15:50:19.384Z,24.79
2022-08-31T15:52:51.244Z,25.12
2022-08-31T15:55:26.415Z,25.49
2022-08-31T15:57:55.109Z,25.67
2022-08-31T16:00:26.007Z,25.67
2022-08-31T16:02:57.337Z,25.80
2022-08-31T16:05:28.190Z,25.94
2022-08-31T16:07:57.210Z,25.91
2022-08-31T16:10:27.758Z,25.63
2022-08-31T16:12:56.030Z,25.63
2022-08-31T16:15:26.750Z,25.70
2022-08-31T16:17:57.589Z,25.65
2022-08-31T16:20:27.219Z,25.98
2022-08-31T16:22:55.351Z,26.22
2022-08-31T16:25:25.235Z,26.61
2022-08-31T16:27:59.782Z,26.78
2022-08-31T16:30:29.199Z,26.76
2022-08-31T16:32:57.230Z,26.66
2022-08-31T16:35:28.395Z,27.07
2022-08-31T16:37:56.541Z,27.32
2022-08-31T16:40:25.988Z,27.46
2022-08-31T16:42:54.085Z,27.21
2022-08-31T16:45:22.026Z,26.27
2022-08-31T16:48:11.848Z,26.68
2022-08-31T16:50:43.945Z,26.78
2022-08-31T16:53:21.366Z,27.09
2022-08-31T16:55:49.495Z,27.60
2022-08-31T16:58:29.837Z,27.61
2022-08-31T17:01:08.968Z,27.58
2022-08-31T17:03:38.491Z,27.62
2022-08-31T17:06:06.590Z,27.22
2022-08-31T17:08:44.315Z,27.50
2022-08-31T17:11:23.599Z,27.37
2022-08-31T17:13:53.594Z,26.33
2022-08-31T17:16:22.163Z,25.42
2022-08-31T17:18:53.657Z,24.98
2022-08-31T17:21:26.639Z,23.98
2022-08-31T17:23:59.031Z,23.77
2022-08-31T17:26:31.777Z,23.50
2022-08-31T17:29:03.650Z,23.36
2022-08-31T17:31:43.393Z,23.14
2022-08-31T17:34:16.084Z,22.81
2022-08-31T17:36:45.905Z,22.67
2022-08-31T17:39:16.966Z,22.50
2022-08-31T17:41:46.420Z,22.25
2022-08-31T17:44:16.046Z,22.15
2022-08-31T17:46:47.225Z,21.94
2022-08-31T17:49:18.842Z,21.87
2022-08-31T17:51:48.009Z,21.74
2022-08-31T17:54:18.824Z,21.67
2022-08-31T17:56:51.122Z,21.51
2022-08-31T17:59:21.958Z,21.41
2022-08-31T18:01:52.183Z,21.34
2022-08-31T18:04:23.381Z,21.24
2022-08-31T18:06:55.003Z,21.11
2022-08-31T18:09:33.469Z,21.02
2022-08-31T18:12:02.319Z,20.91
2022-08-31T18:14:32.260Z,20.83
2022-08-31T18:17:02.837Z,20.73
2022-08-31T18:19:35.046Z,20.60
2022-08-31T18:22:03.188Z,20.52
2022-08-31T18:24:34.106Z,20.42
2022-08-31T18:27:04.279Z,20.31
2022-08-31T18:29:34.010Z,20.22
2022-08-31T18:32:04.042Z,20.11
2022-08-31T18:34:35.395Z,20.03
2022-08-31T18:37:04.659Z,19.95
2022-08-31T18:39:53.606Z,19.90
2022-08-31T18:42:39.304Z,19.80
2022-08-31T18:45:20.645Z,19.73
2022-08-31T18:50:44.406Z,19.58
2022-08-31T18:53:15.277Z,19.54
2022-08-31T18:55:44.443Z,19.49
2022-08-31T18:58:12.920Z,19.44
2022-08-31T19:00:41.514Z,19.42
2022-08-31T19:03:09.518Z,19.38
2022-08-31T19:05:40.904Z,19.35
2022-08-31T19:08:10.234Z,19.30
2022-08-31T19:10:41.617Z,19.29
2022-08-31T19:13:09.721Z,19.29
2022-08-31T19:15:39.568Z,19.30
2022-08-31T19:18:07.975Z,19.28
2022-08-31T19:20:36.292Z,19.28
2022-08-31T19:23:04.391Z,19.21
2022-08-31T19:25:33.712Z,19.15
2022-08-31T19:28:07.723Z,19.07
2022-08-31T19:30:36.280Z,19.00
2022-08-31T19:33:07.495Z,18.95
2022-08-31T19:35:36.507Z,18.92
2022-08-31T19:38:04.689Z,18.87
2022-08-31T19:40:39.292Z,18.82
2022-08-31T19:45:56.559Z,18.66
2022-08-31T19:48:46.082Z,18.54
2022-08-31T19:51:15.289Z,18.54
2022-08-31T19:53:45.024Z,18.53
2022-08-31T19:56:17.728Z,18.48
2022-08-31T19:58:48.336Z,18.41
2022-08-31T20:01:18.246Z,18.38
2022-08-31T20:03:48.189Z,18.34
2022-08-31T20:06:19.240Z,18.27
2022-08-31T20:08:49.047Z,18.23
2022-08-31T20:11:21.911Z,18.22
2022-08-31T20:13:50.310Z,18.13
2022-08-31T20:16:19.925Z,18.12
2022-08-31T20:18:48.689Z,18.04
2022-08-31T20:21:20.261Z,18.01
2022-08-31T20:23:49.884Z,17.99
2022-08-31T20:26:23.294Z,17.95
2022-08-31T20:28:57.773Z,17.92
2022-08-31T20:31:26.235Z,17.86
2022-08-31T20:33:57.222Z,17.76
2022-08-31T20:36:29.169Z,17.71
2022-08-31T20:39:01.546Z,17.73
2022-08-31T20:41:32.764Z,17.71
2022-08-31T20:44:10.150Z,17.65
2022-08-31T20:46:56.933Z,17.62
2022-08-31T20:49:26.133Z,17.59
2022-08-31T20:51:56.272Z,17.51
2022-08-31T20:54:25.708Z,17.49
2022-08-31T20:56:55.807Z,17.46
2022-08-31T20:59:25.118Z,17.42
2022-08-31T21:01:55.780Z,17.36
2022-08-31T21:04:24.044Z,17.31
2022-08-31T21:06:52.311Z,17.29
2022-08-31T21:09:20.587Z,17.26
2022-08-31T21:11:49.017Z,17.21
2022-08-31T21:14:20.587Z,17.22
2022-08-31T21:16:49.288Z,17.17
2022-08-31T21:19:22.251Z,17.12
2022-08-31T21:21:51.861Z,17.09
2022-08-31T21:24:21.695Z,17.03
2022-08-31T21:26:59.092Z,17.07
2022-08-31T21:29:29.701Z,17.02
2022-08-31T21:32:03.435Z,16.99
2022-08-31T21:34:32.106Z,16.92
2022-08-31T21:37:00.219Z,16.86
2022-08-31T21:39:28.374Z,16.83
2022-08-31T21:41:56.652Z,16.75
2022-08-31T21:44:24.593Z,16.74
2022-08-31T21:46:54.314Z,16.74
2022-08-31T21:49:22.600Z,16.68
2022-08-31T21:51:53.018Z,16.67
2022-08-31T21:54:23.431Z,16.64
2022-08-31T21:56:53.774Z,16.62
2022-08-31T21:59:25.562Z,16.55
2022-08-31T22:02:00.255Z,16.52
2022-08-31T22:04:28.994Z,16.44
2022-08-31T22:06:57.806Z,16.42
2022-08-31T22:09:26.214Z,16.32
2022-08-31T22:11:57.176Z,16.26
2022-08-31T22:14:29.282Z,16.28
2022-08-31T22:17:00.123Z,16.27
2022-08-31T22:19:28.611Z,16.24
2022-08-31T22:21:59.171Z,16.20
2022-08-31T22:24:29.547Z,16.21
2022-08-31T22:26:59.599Z,16.18
2022-08-31T22:29:30.872Z,16.19
2022-08-31T22:32:02.235Z,16.15
2022-08-31T22:34:31.067Z,16.02
2022-08-31T22:36:59.083Z,16.02
2022-08-31T22:39:29.620Z,16.00
2022-08-31T22:41:59.016Z,16.02
2022-08-31T22:44:31.037Z,15.96
2022-08-31T22:47:00.261Z,15.89
2022-08-31T22:49:28.385Z,15.88
2022-08-31T22:51:56.925Z,15.88
2022-08-31T22:54:25.735Z,15.83
2022-08-31T22:56:53.678Z,15.79
2022-08-31T22:59:27.350Z,15.72
2022-08-31T23:01:59.173Z,15.71
2022-08-31T23:04:28.956Z,15.67
2022-08-31T23:07:01.199Z,15.71
2022-08-31T23:09:31.234Z,15.67
2022-08-31T23:12:01.208Z,15.58
2022-08-31T23:14:30.205Z,15.51
2022-08-31T23:17:00.785Z,15.52
2022-08-31T23:19:33.269Z,15.46
2022-08-31T23:22:02.048Z,15.44
2022-08-31T23:24:32.320Z,15.44
2022-08-31T23:27:04.590Z,15.42
2022-08-31T23:29:34.565Z,15.33
2022-08-31T23:32:02.898Z,15.36
2022-08-31T23:34:36.375Z,15.31
2022-08-31T23:37:07.871Z,15.30
2022-08-31T23:39:37.605Z,15.23
2022-08-31T23:42:06.494Z,15.19
2022-08-31T23:44:36.112Z,15.18
2022-08-31T23:47:04.796Z,15.14
2022-08-31T23:49:33.956Z,15.11
2022-08-31T23:52:01.826Z,15.05
2022-08-31T23:54:29.797Z,14.98
2022-08-31T23:56:57.828Z,14.97
2022-08-31T23:59:26.240Z,14.94
